Latest Weather Observations for Palmerville

IDQ60801

Issued at 7:22 am EST Wednesday 23 October 2019 (issued every 10 minutes, with the page automatically refreshed every 10 minutes)

About weather observations | Map of weather stations | Latest weather observations for QLD | Other Formats
Station Details ID: 028004 Name: PALMERVILLE Lat: -16.00 Lon: 144.08 Height: 203.8 m
Data from the previous 72 hours. | See also: Recent months at Palmerville
Date/Time
EST
Temp
°C
App
Temp
°C
Dew
Point
°C
Rel
Hum
%
Delta-T
°C
Wind Press
QNH
hPa
Press
MSL
hPa
Rain since
9am
mm
Dir  Spd
km/h
Gust
km/h
Spd
kts
Gust
kts
23/07:00am 24.5 23.3 15.1 55 5.7 E 15 28 8 15 1015.6 1014.3 0.0
23/06:30am 23.8 23.3 15.8 61 4.9 E 13 24 7 13 1015.3 1014.0 0.0
23/06:00am 22.9 23.6 16.0 65 4.2 E 7 13 4 7 1015.0 1013.7 0.0
23/05:30am 22.8 23.2 16.4 67 3.9 E 9 15 5 8 1014.5 1013.2 0.0
23/05:00am 22.6 22.7 16.4 68 3.8 ESE 11 19 6 10 1014.2 1012.9 0.0
23/04:30am 22.5 22.2 16.5 69 3.7 E 13 20 7 11 1014.1 1012.8 0.0
23/04:00am 22.6 22.0 16.6 69 3.7 E 15 20 8 11 1014.0 1012.7 0.0
23/03:30am 23.0 22.0 16.5 67 4.0 ENE 17 28 9 15 1013.8 1012.5 0.0
23/03:00am 23.0 22.3 16.3 66 4.1 E 15 22 8 12 1014.1 1012.8 0.0
23/02:30am 23.1 23.5 16.2 65 4.2 ESE 9 13 5 7 1014.2 1012.9 0.0
23/02:00am 22.9 23.0 15.5 63 4.5 ESE 9 15 5 8 1014.5 1013.2 0.0
23/01:30am 23.1 22.8 15.4 62 4.7 ESE 11 17 6 9 1014.8 1013.5 0.0
23/01:00am 23.0 22.5 14.8 60 4.9 ESE 11 15 6 8 1014.9 1013.6 0.0
23/12:30am 23.2 22.6 14.7 58 5.1 ESE 11 22 6 12 1015.4 1014.1 0.0
23/12:00am 22.9 22.7 14.7 60 4.9 E 9 15 5 8 1015.7 1014.4 0.0
 
Date/Time
EST
Temp
°C
App
Temp
°C
Dew
Point
°C
Rel
Hum
%
Delta-T
°C
Wind Press
QNH
hPa
Press
MSL
hPa
Rain since
9am
mm
Dir  Spd
km/h
Gust
km/h
Spd
kts
Gust
kts
22/11:30pm 23.1 23.5 14.7 59 5.0 ESE 6 9 3 5 1015.9 1014.6 0.0
22/11:00pm 23.7 24.1 14.7 57 5.4 E 6 13 3 7 1016.1 1014.8 0.0
22/10:30pm 24.2 23.9 14.3 54 5.9 E 9 17 5 9 1016.2 1014.9 0.0
22/10:00pm 24.7 23.9 13.9 51 6.4 E 11 17 6 9 1016.1 1014.8 0.0
22/09:30pm 25.2 23.9 13.7 49 6.8 E 13 24 7 13 1015.9 1014.6 0.0
22/09:00pm 25.4 24.6 13.9 49 6.8 E 11 22 6 12 1015.7 1014.4 0.0
22/08:30pm 25.8 24.8 14.6 50 6.8 E 13 24 7 13 1015.5 1014.2 0.0
22/08:00pm 26.4 25.4 14.5 48 7.2 E 13 22 7 12 1015.3 1014.0 0.0
22/07:30pm 27.0 25.6 14.4 46 7.6 E 15 28 8 15 1015.0 1013.7 0.0
22/07:00pm 27.5 26.5 14.5 45 7.9 ENE 13 26 7 14 1014.6 1013.3 0.0
22/06:30pm 28.0 26.5 14.3 43 8.3 ENE 15 24 8 13 1014.0 1012.7 0.0
22/06:00pm 28.4 26.4 15.0 44 8.2 E 19 35 10 19 1013.6 1012.3 0.0
22/05:30pm 29.7 27.8 14.3 39 9.4 E 17 28 9 15 1012.9 1011.7 0.0
22/05:00pm 30.3 28.3 14.0 37 9.9 E 17 26 9 14 1012.5 1011.2 0.0
22/04:30pm 30.7 28.7 13.9 36 10.2 E 17 30 9 16 1012.3 1011.0 0.0
22/04:00pm 30.8 28.3 14.0 36 10.2 ESE 20 30 11 16 1012.2 1010.9 0.0
22/03:30pm 31.5 29.0 14.2 35 10.6 ESE 20 32 11 17 1012.1 1010.8 0.0
22/03:00pm 31.3 29.5 14.4 35 10.4 E 17 35 9 19 1012.1 1010.8 0.0
22/02:30pm 31.3 29.5 14.4 35 10.4 ENE 17 28 9 15 1012.2 1010.9 0.0
22/02:00pm 31.6 29.2 14.3 35 10.6 ENE 20 33 11 18 1012.5 1011.2 0.0
22/01:30pm 31.1 29.0 14.7 37 10.1 E 19 35 10 19 1012.9 1011.7 0.0
22/01:00pm 30.6 28.4 14.3 37 10.0 ENE 19 28 10 15 1013.5 1012.2 0.0
22/12:30pm 30.4 28.5 14.1 37 9.9 ENE 17 28 9 15 1014.1 1012.8 0.0
22/12:00pm 30.5 28.9 15.0 39 9.6 E 17 28 9 15 1014.5 1013.2 0.0
22/11:30am 31.0 28.6 15.4 38 9.7 ENE 22 37 12 20 1015.0 1013.7 0.0
22/11:00am 29.7 27.8 15.8 43 8.7 ENE 20 39 11 21 1015.5 1014.2 0.0
22/10:30am 28.9 26.3 15.8 45 8.1 ENE 24 41 13 22 1015.9 1014.6 0.0
22/10:00am 30.5 28.7 16.1 41 9.0 ENE 20 35 11 19 1015.9 1014.6 0.0
22/09:30am 30.6 28.7 16.6 43 8.9 E 22 41 12 22 1016.0 1014.7 0.0
22/09:00am 28.0 26.4 16.6 50 7.1 E 20 37 11 20 1016.1 1014.8 0.0
22/08:30am 26.8 25.2 16.4 53 6.5 ENE 20 32 11 17 1016.0 1014.7 0.0
22/08:00am 26.8 26.1 16.4 53 6.5 ESE 15 26 8 14 1015.9 1014.6 0.0
22/07:30am 25.5 25.6 16.4 57 5.6 SE 11 15 6 8 1015.6 1014.3 0.0
22/07:00am 25.1 25.3 16.8 60 5.2 ESE 11 15 6 8 1015.1 1013.8 0.0
22/06:30am 24.0 23.8 16.8 64 4.5 E 13 22 7 12 1014.7 1013.4 0.0
22/06:00am 23.5 23.6 16.5 65 4.3 E 11 22 6 12 1014.5 1013.2 0.0
22/05:30am 23.5 23.5 16.3 64 4.4 E 11 22 6 12 1014.2 1012.9 0.0
22/05:00am 23.6 23.5 16.1 62 4.6 ENE 11 20 6 11 1013.8 1012.5 0.0
22/04:30am 23.5 23.8 16.1 63 4.5 ENE 9 17 5 9 1013.7 1012.4 0.0
22/04:00am 23.6 23.0 15.6 61 4.9 E 13 20 7 11 1013.5 1012.2 0.0
22/03:30am 23.5 23.6 15.5 60 4.8 ENE 9 19 5 10 1013.3 1012.0 0.0
22/03:00am 24.1 23.2 15.9 60 5.0 E 15 22 8 12 1013.5 1012.2 0.0
22/02:30am 23.9 22.9 15.7 60 5.0 ENE 15 26 8 14 1013.6 1012.3 0.0
22/02:00am 24.0 23.5 15.8 60 5.0 E 13 26 7 14 1013.8 1012.5 0.0
22/01:30am 24.1 23.6 15.9 60 5.0 ENE 13 26 7 14 1014.2 1012.9 0.0
22/01:00am 24.3 22.9 15.5 58 5.3 E 17 33 9 18 1014.4 1013.1 0.0
22/12:30am 24.5 23.7 16.0 59 5.2 E 15 24 8 13 1014.6 1013.3 0.0
22/12:00am 24.5 24.1 16.2 60 5.1 E 13 20 7 11 1015.0 1013.7 0.0
 
Date/Time
EST
Temp
°C
App
Temp
°C
Dew
Point
°C
Rel
Hum
%
Delta-T
°C
Wind Press
QNH
hPa
Press
MSL
hPa
Rain since
9am
mm
Dir  Spd
km/h
Gust
km/h
Spd
kts
Gust
kts
21/11:30pm 24.6 24.4 16.6 61 5.0 E 13 24 7 13 1015.4 1014.1 0.0
21/11:00pm 24.7 24.0 16.4 60 5.1 ENE 15 24 8 13 1015.5 1014.2 0.0
21/10:30pm 24.9 24.0 15.8 57 5.6 E 15 30 8 16 1015.5 1014.2 0.0
21/10:00pm 25.1 24.3 15.1 53 6.1 E 13 24 7 13 1015.4 1014.1 0.0
21/09:30pm 25.1 25.2 15.4 55 5.9 ENE 9 17 5 9 1015.1 1013.8 0.0
21/09:00pm 25.7 24.1 15.1 52 6.4 ENE 17 32 9 17 1014.6 1013.3 0.0
21/08:30pm 26.2 24.0 15.0 50 6.8 ENE 20 30 11 16 1014.3 1013.0 0.0
21/08:00pm 26.7 25.0 14.8 48 7.2 ENE 17 26 9 14 1013.9 1012.6 0.0
21/07:30pm 27.5 26.1 14.5 45 7.9 ENE 15 26 8 14 1013.6 1012.3 0.0
21/07:00pm 28.4 26.0 14.3 42 8.5 ENE 20 33 11 18 1013.1 1011.8 0.0
21/06:30pm 29.6 27.6 13.8 38 9.5 ENE 17 32 9 17 1012.6 1011.3 0.0
21/06:00pm 30.8 28.5 13.1 34 10.6 ENE 17 28 9 15 1012.0 1010.7 0.0
21/05:30pm 31.7 29.6 13.5 33 11.0 ENE 17 28 9 15 1011.4 1010.1 0.0
21/05:00pm 32.7 30.0 13.4 31 11.7 E 20 32 11 17 1011.0 1009.7 0.0
21/04:30pm 32.9 30.8 13.5 30 11.8 ENE 17 26 9 14 1010.6 1009.3 0.0
21/04:00pm 33.6 32.3 13.6 29 12.2 ENE 13 22 7 12 1010.3 1009.0 0.0
21/03:30pm 33.6 31.2 12.6 28 12.7 ENE 17 24 9 13 1010.2 1008.9 0.0
21/03:00pm 35.2 33.2 12.8 26 13.6 NNE 15 28 8 15 1010.4 1009.1 0.0
21/02:30pm 34.3 34.0 12.6 27 13.1 SE 6 15 3 8 1010.7 1009.4 0.0
21/02:00pm 35.3 33.6 13.5 27 13.4 E 15 28 8 15 1011.0 1009.7 0.0
21/01:30pm 34.3 33.4 12.6 27 13.1 ENE 9 19 5 10 1011.7 1010.4 0.0
21/01:00pm 33.8 32.6 12.7 27 12.8 ENE 11 19 6 10 1012.4 1011.1 0.0
21/12:30pm 32.8 31.4 13.4 30 11.8 E 13 26 7 14 1013.1 1011.8 0.0
21/12:00pm 32.0 30.9 14.2 34 10.9 E 13 20 7 11 1013.6 1012.3 0.0
21/11:30am 31.9 30.4 14.1 34 10.9 SE 15 30 8 16 1013.9 1012.6 0.0
21/11:00am 31.4 30.8 14.5 35 10.4 E 11 20 6 11 1014.4 1013.1 0.0
21/10:30am 30.8 30.3 16.0 40 9.3 ENE 13 22 7 12 1015.0 1013.7 0.0
21/10:00am 29.7 28.5 16.1 43 8.5 E 17 26 9 14 1015.3 1014.0 0.0
21/09:30am 28.4 28.2 16.7 49 7.4 NNE 13 20 7 11 1015.7 1014.4 0.0
21/09:00am 27.2 27.8 16.8 53 6.5 E 9 17 5 9 1015.8 1014.5 0.0
21/08:30am 25.7 26.6 16.5 56 5.7 E 7 13 4 7 1015.9 1014.6 0.0
21/08:00am 24.3 26.2 16.6 62 4.8 NE 2 9 1 5 1015.7 1014.4 0.0
21/07:30am 22.9 24.4 16.7 68 3.8 ESE 4 7 2 4 1015.3 1014.0 0.0
21/07:00am 20.1 21.8 16.3 79 2.3 S 2 6 1 3 1015.0 1013.7 0.0
21/06:30am 17.4 19.0 14.9 85 1.5 CALM 0 6 0 3 1014.8 1013.5 0.0
21/06:00am 16.1 17.2 14.5 90 0.9 ESE 2 6 1 3 1014.5 1013.2 0.0
21/05:30am 16.6 16.6 13.7 83 1.7 ESE 6 7 3 4 1014.3 1013.0 0.0
21/05:00am 17.3 18.2 16.2 93 0.7 ESE 6 9 3 5 1013.8 1012.5 0.0
21/04:30am 16.7 18.4 15.1 90 0.9 CALM 0 6 0 3 1013.5 1012.2 0.0
21/04:00am 16.9 18.6 15.1 89 1.1 CALM 0 0 0 0 1013.3 1012.0 0.0
21/03:30am 17.4 18.9 14.7 84 1.6 CALM 0 0 0 0 1013.2 1011.9 0.0
21/03:00am 17.8 19.5 15.1 84 1.6 CALM 0 0 0 0 1013.4 1012.1 0.0
21/02:30am 18.5 20.2 15.2 81 1.9 CALM 0 0 0 0 1013.5 1012.2 0.0
21/02:00am 19.5 20.3 14.7 74 2.8 E 4 6 2 3 1013.7 1012.4 0.0
21/01:30am 20.9 21.8 16.7 77 2.6 N 7 9 4 5 1014.0 1012.7 0.0
21/01:00am 21.4 22.1 16.1 72 3.2 N 7 9 4 5 1014.2 1012.9 0.0
21/12:30am 22.3 22.6 15.9 67 3.9 N 9 13 5 7 1014.3 1013.0 0.0
21/12:00am 22.8 22.9 15.6 64 4.4 NNW 9 15 5 8 1014.7 1013.4 0.0
 
Date/Time
EST
Temp
°C
App
Temp
°C
Dew
Point
°C
Rel
Hum
%
Delta-T
°C
Wind Press
QNH
hPa
Press
MSL
hPa
Rain since
9am
mm
Dir  Spd
km/h
Gust
km/h
Spd
kts
Gust
kts
20/11:30pm 23.5 23.0 12.8 51 6.2 NNW 7 13 4 7 1014.6 1013.3 0.0
20/11:00pm 24.4 23.5 11.4 44 7.4 N 7 13 4 7 1014.3 1013.0 0.0
20/10:30pm 25.5 23.5 10.1 38 8.6 NNE 11 20 6 11 1014.1 1012.8 0.0
20/10:00pm 26.8 24.4 10.1 35 9.4 NNE 13 20 7 11 1013.9 1012.6 0.0
20/09:30pm 27.4 25.3 9.7 33 9.9 NNE 11 17 6 9 1013.7 1012.4 0.0
20/09:00pm 28.8 26.2 7.9 27 11.4 NNE 11 17 6 9 1013.3 1012.0 0.0
20/08:30pm 29.5 27.0 8.0 26 11.8 NE 11 15 6 8 1012.8 1011.6 0.0
20/08:00pm 30.4 28.0 8.7 26 12.1 NE 11 15 6 8 1012.2 1010.9 0.0
20/07:30pm 31.6 29.0 9.2 25 12.7 NNE 13 22 7 12 1011.6 1010.3 0.0
20/07:00pm 32.1 30.5 10.2 26 12.7 NNE 9 17 5 9 1011.2 1009.9 0.0
20/06:30pm 32.8 29.9 -4.2 9 16.9 SW 2 9 1 5 1010.5 1009.2 0.0
20/06:00pm 36.4 31.9 -6.9 6 19.5 S 9 15 5 8 1009.9 1008.6 0.0
20/05:30pm 37.7 32.9 -6.0 6 20.2 S 11 15 6 8 1009.7 1008.4 0.0
20/05:00pm 38.1 32.7 -8.1 5 20.7 SSE 13 20 7 11 1009.6 1008.3 0.0
20/04:30pm 38.6 32.7 -5.3 6 20.6 SSE 17 28 9 15 1009.5 1008.2 0.0
20/04:00pm 39.1 34.0 -5.0 6 20.9 SE 13 20 7 11 1009.6 1008.3 0.0
20/03:30pm 38.9 32.5 -5.1 6 20.8 S 20 37 11 20 1009.9 1008.6 0.0
20/03:00pm 38.9 32.5 -5.1 6 20.8 SSE 20 33 11 18 1010.1 1008.8 0.0
20/02:30pm 39.6 33.2 -7.0 5 21.5 S 19 30 10 16 1010.4 1009.1 0.0
20/02:00pm 38.7 32.7 -3.2 7 20.3 SE 19 30 10 16 1010.8 1009.5 0.0
20/01:30pm 38.1 32.6 -1.9 8 19.7 SE 17 30 9 16 1011.6 1010.3 0.0
20/01:00pm 37.4 31.7 -0.8 9 19.1 ESE 19 32 10 17 1012.3 1011.0 0.0
20/12:30pm 37.9 31.7 -0.4 9 19.3 SE 22 33 12 18 1012.9 1011.7 0.0
20/12:00pm 36.7 29.8 -2.9 8 19.0 SE 24 39 13 21 1013.5 1012.2 0.0
20/11:30am 36.8 30.1 -1.2 9 18.8 SE 24 39 13 21 1014.1 1012.8 0.0
20/11:00am 35.4 30.6 2.8 13 17.0 ESE 17 28 9 15 1014.7 1013.4 0.0
20/10:30am 34.4 32.1 8.9 21 14.6 SE 11 19 6 10 1015.3 1014.0 0.0
20/10:00am 32.2 30.7 11.9 29 12.0 ENE 11 17 6 9 1015.9 1014.6 0.0
20/09:30am 29.7 29.6 13.9 38 9.6 ENE 7 11 4 6 1016.5 1015.2 0.0
20/09:00am 27.2 27.8 15.2 47 7.3 ESE 6 11 3 6 1017.0 1015.8 0.0
20/08:30am 26.1 26.5 15.2 51 6.6 ESE 7 9 4 5 1017.0 1015.8 0.0
20/08:00am 24.9 25.7 16.3 59 5.3 E 7 11 4 6 1017.0 1015.8 0.0
20/07:30am 22.9 23.9 16.9 69 3.7 E 7 11 4 6 1016.9 1015.6 0.0

Other formats

Comma delimited format used in spreadsheet applications
http://www.bom.gov.au/fwo/IDQ60801/IDQ60801.94276.axf

JavaScript Object Notation format (JSON) in row-major order
http://www.bom.gov.au/fwo/IDQ60801/IDQ60801.94276.json

Data quality

Most of these data are generated automatically and are frequently updated. Quality checks on data are not normally performed. It is possible for incorrect values to appear. Refer to information at About Latest Weather Observations and please check the disclaimer before using these data.